sensor_id;sensor_type;location;lat;lon;timestamp;P1;durP1;ratioP1;P2;durP2;ratioP2
11964;SDS011;6042;41.326;19.826;2022-11-20T00:01:29;5.97;;;2.37;;
11964;SDS011;6042;41.326;19.826;2022-11-20T00:03:58;7.77;;;2.10;;
11964;SDS011;6042;41.326;19.826;2022-11-20T00:06:28;5.73;;;2.00;;
11964;SDS011;6042;41.326;19.826;2022-11-20T00:08:57;5.23;;;1.77;;
11964;SDS011;6042;41.326;19.826;2022-11-20T00:11:29;5.47;;;2.00;;
11964;SDS011;6042;41.326;19.826;2022-11-20T00:14:00;6.80;;;2.03;;
11964;SDS011;6042;41.326;19.826;2022-11-20T00:16:31;11.07;;;2.60;;
11964;SDS011;6042;41.326;19.826;2022-11-20T00:19:00;6.43;;;2.20;;
11964;SDS011;6042;41.326;19.826;2022-11-20T00:21:29;6.37;;;2.43;;
11964;SDS011;6042;41.326;19.826;2022-11-20T00:23:58;5.53;;;2.20;;
11964;SDS011;6042;41.326;19.826;2022-11-20T00:26:27;8.37;;;2.13;;
11964;SDS011;6042;41.326;19.826;2022-11-20T00:28:57;8.57;;;2.23;;
11964;SDS011;6042;41.326;19.826;2022-11-20T00:31:28;6.37;;;2.07;;
11964;SDS011;6042;41.326;19.826;2022-11-20T00:33:59;6.03;;;1.70;;
11964;SDS011;6042;41.326;19.826;2022-11-20T00:36:28;4.53;;;1.77;;
11964;SDS011;6042;41.326;19.826;2022-11-20T00:38:59;9.63;;;2.00;;
11964;SDS011;6042;41.326;19.826;2022-11-20T00:41:28;10.40;;;2.03;;
11964;SDS011;6042;41.326;19.826;2022-11-20T00:44:01;5.60;;;1.70;;
11964;SDS011;6042;41.326;19.826;2022-11-20T00:46:29;5.20;;;1.40;;
11964;SDS011;6042;41.326;19.826;2022-11-20T00:48:58;7.43;;;1.53;;
11964;SDS011;6042;41.326;19.826;2022-11-20T00:51:27;7.97;;;1.83;;
11964;SDS011;6042;41.326;19.826;2022-11-20T00:53:56;5.07;;;1.77;;
11964;SDS011;6042;41.326;19.826;2022-11-20T00:56:26;6.47;;;2.00;;
11964;SDS011;6042;41.326;19.826;2022-11-20T00:58:55;5.97;;;1.67;;
11964;SDS011;6042;41.326;19.826;2022-11-20T01:01:28;4.87;;;1.40;;
11964;SDS011;6042;41.326;19.826;2022-11-20T01:03:57;8.10;;;2.00;;
11964;SDS011;6042;41.326;19.826;2022-11-20T01:06:28;5.73;;;1.70;;
11964;SDS011;6042;41.326;19.826;2022-11-20T01:08:58;8.07;;;1.80;;
11964;SDS011;6042;41.326;19.826;2022-11-20T01:11:28;5.83;;;1.83;;
11964;SDS011;6042;41.326;19.826;2022-11-20T01:13:58;8.37;;;2.20;;
11964;SDS011;6042;41.326;19.826;2022-11-20T01:16:33;6.57;;;1.73;;
11964;SDS011;6042;41.326;19.826;2022-11-20T01:19:04;7.27;;;2.27;;
11964;SDS011;6042;41.326;19.826;2022-11-20T01:21:35;6.70;;;1.63;;
11964;SDS011;6042;41.326;19.826;2022-11-20T01:24:05;6.33;;;1.90;;
11964;SDS011;6042;41.326;19.826;2022-11-20T01:26:36;7.60;;;1.90;;
11964;SDS011;6042;41.326;19.826;2022-11-20T01:29:07;7.30;;;1.80;;
11964;SDS011;6042;41.326;19.826;2022-11-20T01:31:41;4.23;;;1.60;;
11964;SDS011;6042;41.326;19.826;2022-11-20T01:34:11;12.53;;;1.90;;
11964;SDS011;6042;41.326;19.826;2022-11-20T01:36:41;8.63;;;1.83;;
11964;SDS011;6042;41.326;19.826;2022-11-20T01:39:11;6.13;;;1.60;;
11964;SDS011;6042;41.326;19.826;2022-11-20T01:41:41;6.77;;;1.60;;
11964;SDS011;6042;41.326;19.826;2022-11-20T01:44:43;6.23;;;1.57;;
11964;SDS011;6042;41.326;19.826;2022-11-20T01:47:18;9.63;;;1.77;;
11964;SDS011;6042;41.326;19.826;2022-11-20T01:49:52;9.30;;;1.73;;
11964;SDS011;6042;41.326;19.826;2022-11-20T01:52:26;8.90;;;2.20;;
11964;SDS011;6042;41.326;19.826;2022-11-20T01:55:05;7.77;;;1.93;;
11964;SDS011;6042;41.326;19.826;2022-11-20T01:57:36;7.37;;;1.60;;
11964;SDS011;6042;41.326;19.826;2022-11-20T02:00:07;7.73;;;1.83;;
11964;SDS011;6042;41.326;19.826;2022-11-20T02:02:41;6.43;;;1.80;;
11964;SDS011;6042;41.326;19.826;2022-11-20T02:05:17;8.47;;;2.07;;
11964;SDS011;6042;41.326;19.826;2022-11-20T02:07:50;6.80;;;1.80;;
11964;SDS011;6042;41.326;19.826;2022-11-20T02:10:19;6.40;;;1.47;;
11964;SDS011;6042;41.326;19.826;2022-11-20T02:12:48;6.97;;;1.70;;
11964;SDS011;6042;41.326;19.826;2022-11-20T02:15:34;5.50;;;1.60;;
11964;SDS011;6042;41.326;19.826;2022-11-20T02:18:07;7.37;;;1.73;;
11964;SDS011;6042;41.326;19.826;2022-11-20T02:20:37;7.00;;;1.63;;
11964;SDS011;6042;41.326;19.826;2022-11-20T02:23:08;6.63;;;1.70;;
11964;SDS011;6042;41.326;19.826;2022-11-20T02:25:46;5.03;;;1.50;;
11964;SDS011;6042;41.326;19.826;2022-11-20T02:28:16;6.90;;;1.70;;
11964;SDS011;6042;41.326;19.826;2022-11-20T02:30:45;5.40;;;1.63;;
11964;SDS011;6042;41.326;19.826;2022-11-20T02:33:14;7.57;;;1.63;;
11964;SDS011;6042;41.326;19.826;2022-11-20T02:35:44;5.40;;;1.80;;
11964;SDS011;6042;41.326;19.826;2022-11-20T02:38:13;7.57;;;2.07;;
11964;SDS011;6042;41.326;19.826;2022-11-20T02:40:42;4.03;;;1.30;;
11964;SDS011;6042;41.326;19.826;2022-11-20T02:43:12;7.00;;;1.80;;
11964;SDS011;6042;41.326;19.826;2022-11-20T02:45:43;8.13;;;1.80;;
11964;SDS011;6042;41.326;19.826;2022-11-20T02:48:11;7.10;;;1.60;;
11964;SDS011;6042;41.326;19.826;2022-11-20T02:50:39;6.17;;;1.67;;
11964;SDS011;6042;41.326;19.826;2022-11-20T02:53:09;8.30;;;2.17;;
11964;SDS011;6042;41.326;19.826;2022-11-20T02:55:37;8.37;;;1.47;;
11964;SDS011;6042;41.326;19.826;2022-11-20T02:58:08;7.00;;;1.90;;
11964;SDS011;6042;41.326;19.826;2022-11-20T03:00:38;9.97;;;1.80;;
11964;SDS011;6042;41.326;19.826;2022-11-20T03:03:07;7.87;;;2.00;;
11964;SDS011;6042;41.326;19.826;2022-11-20T03:05:35;4.33;;;1.60;;
11964;SDS011;6042;41.326;19.826;2022-11-20T03:08:04;6.47;;;1.60;;
11964;SDS011;6042;41.326;19.826;2022-11-20T03:10:32;8.33;;;2.07;;
11964;SDS011;6042;41.326;19.826;2022-11-20T03:13:01;10.07;;;1.90;;
11964;SDS011;6042;41.326;19.826;2022-11-20T03:15:30;6.60;;;2.00;;
11964;SDS011;6042;41.326;19.826;2022-11-20T03:18:00;7.07;;;2.10;;
11964;SDS011;6042;41.326;19.826;2022-11-20T03:20:28;9.30;;;2.03;;
11964;SDS011;6042;41.326;19.826;2022-11-20T03:22:57;7.40;;;2.30;;
11964;SDS011;6042;41.326;19.826;2022-11-20T03:25:25;7.57;;;2.40;;
11964;SDS011;6042;41.326;19.826;2022-11-20T03:27:55;7.93;;;2.47;;
11964;SDS011;6042;41.326;19.826;2022-11-20T03:30:23;6.27;;;1.60;;
11964;SDS011;6042;41.326;19.826;2022-11-20T03:32:56;9.03;;;2.23;;
11964;SDS011;6042;41.326;19.826;2022-11-20T03:35:26;5.23;;;2.00;;
11964;SDS011;6042;41.326;19.826;2022-11-20T03:37:54;4.23;;;1.33;;
11964;SDS011;6042;41.326;19.826;2022-11-20T03:40:23;6.80;;;1.93;;
11964;SDS011;6042;41.326;19.826;2022-11-20T03:42:51;5.43;;;1.83;;
11964;SDS011;6042;41.326;19.826;2022-11-20T03:45:20;5.43;;;2.03;;
11964;SDS011;6042;41.326;19.826;2022-11-20T03:47:48;5.27;;;2.03;;
11964;SDS011;6042;41.326;19.826;2022-11-20T03:50:18;8.50;;;2.00;;
11964;SDS011;6042;41.326;19.826;2022-11-20T03:52:47;2.90;;;1.13;;
11964;SDS011;6042;41.326;19.826;2022-11-20T03:55:19;3.40;;;1.60;;
11964;SDS011;6042;41.326;19.826;2022-11-20T03:57:47;2.50;;;1.20;;
11964;SDS011;6042;41.326;19.826;2022-11-20T04:00:16;3.30;;;1.37;;
11964;SDS011;6042;41.326;19.826;2022-11-20T04:02:45;3.13;;;1.27;;
11964;SDS011;6042;41.326;19.826;2022-11-20T04:05:13;3.10;;;1.13;;
11964;SDS011;6042;41.326;19.826;2022-11-20T04:07:42;1.50;;;0.80;;
11964;SDS011;6042;41.326;19.826;2022-11-20T04:10:12;3.00;;;1.00;;
11964;SDS011;6042;41.326;19.826;2022-11-20T04:12:40;4.10;;;1.20;;
11964;SDS011;6042;41.326;19.826;2022-11-20T04:15:09;4.20;;;1.07;;
11964;SDS011;6042;41.326;19.826;2022-11-20T04:17:37;1.60;;;0.80;;
11964;SDS011;6042;41.326;19.826;2022-11-20T04:20:06;4.57;;;1.17;;
11964;SDS011;6042;41.326;19.826;2022-11-20T04:22:35;2.93;;;0.83;;
11964;SDS011;6042;41.326;19.826;2022-11-20T04:25:04;1.07;;;0.90;;
11964;SDS011;6042;41.326;19.826;2022-11-20T04:27:34;2.40;;;1.00;;
11964;SDS011;6042;41.326;19.826;2022-11-20T04:30:03;2.40;;;1.00;;
11964;SDS011;6042;41.326;19.826;2022-11-20T04:32:32;5.50;;;1.30;;
11964;SDS011;6042;41.326;19.826;2022-11-20T04:35:00;3.53;;;1.20;;
11964;SDS011;6042;41.326;19.826;2022-11-20T04:37:29;1.90;;;0.90;;
11964;SDS011;6042;41.326;19.826;2022-11-20T04:39:57;2.03;;;0.83;;
11964;SDS011;6042;41.326;19.826;2022-11-20T04:42:26;3.20;;;1.27;;
11964;SDS011;6042;41.326;19.826;2022-11-20T04:44:58;1.83;;;0.90;;
11964;SDS011;6042;41.326;19.826;2022-11-20T04:47:26;4.87;;;1.20;;
11964;SDS011;6042;41.326;19.826;2022-11-20T04:49:55;1.87;;;1.00;;
11964;SDS011;6042;41.326;19.826;2022-11-20T04:52:23;3.30;;;1.00;;
11964;SDS011;6042;41.326;19.826;2022-11-20T04:54:52;3.20;;;1.33;;
11964;SDS011;6042;41.326;19.826;2022-11-20T04:57:21;3.80;;;1.37;;
11964;SDS011;6042;41.326;19.826;2022-11-20T04:59:49;4.13;;;1.23;;
11964;SDS011;6042;41.326;19.826;2022-11-20T05:02:19;5.20;;;1.47;;
11964;SDS011;6042;41.326;19.826;2022-11-20T05:04:48;4.10;;;1.33;;
11964;SDS011;6042;41.326;19.826;2022-11-20T05:07:16;5.57;;;1.90;;
11964;SDS011;6042;41.326;19.826;2022-11-20T05:09:45;6.73;;;1.40;;
11964;SDS011;6042;41.326;19.826;2022-11-20T05:12:13;5.50;;;1.30;;
11964;SDS011;6042;41.326;19.826;2022-11-20T05:14:42;5.37;;;1.43;;
11964;SDS011;6042;41.326;19.826;2022-11-20T05:17:10;4.97;;;1.80;;
11964;SDS011;6042;41.326;19.826;2022-11-20T05:19:41;4.73;;;1.90;;
11964;SDS011;6042;41.326;19.826;2022-11-20T05:22:09;5.63;;;1.60;;
11964;SDS011;6042;41.326;19.826;2022-11-20T05:24:37;4.97;;;1.37;;
11964;SDS011;6042;41.326;19.826;2022-11-20T05:27:06;5.37;;;1.40;;
11964;SDS011;6042;41.326;19.826;2022-11-20T05:29:34;2.93;;;1.47;;
11964;SDS011;6042;41.326;19.826;2022-11-20T05:32:03;3.67;;;1.57;;
11964;SDS011;6042;41.326;19.826;2022-11-20T05:34:36;4.30;;;1.67;;
11964;SDS011;6042;41.326;19.826;2022-11-20T05:37:06;3.53;;;1.30;;
11964;SDS011;6042;41.326;19.826;2022-11-20T05:39:34;6.17;;;2.33;;
11964;SDS011;6042;41.326;19.826;2022-11-20T05:42:03;5.47;;;1.40;;
11964;SDS011;6042;41.326;19.826;2022-11-20T05:44:49;6.17;;;1.63;;
11964;SDS011;6042;41.326;19.826;2022-11-20T05:47:17;4.33;;;1.50;;
11964;SDS011;6042;41.326;19.826;2022-11-20T05:49:45;4.50;;;1.40;;
11964;SDS011;6042;41.326;19.826;2022-11-20T05:52:15;6.50;;;1.60;;
11964;SDS011;6042;41.326;19.826;2022-11-20T05:54:45;7.27;;;1.60;;
11964;SDS011;6042;41.326;19.826;2022-11-20T05:57:13;3.70;;;1.60;;
11964;SDS011;6042;41.326;19.826;2022-11-20T05:59:42;4.53;;;1.47;;
11964;SDS011;6042;41.326;19.826;2022-11-20T06:02:10;4.53;;;1.50;;
11964;SDS011;6042;41.326;19.826;2022-11-20T06:04:39;6.23;;;1.87;;
11964;SDS011;6042;41.326;19.826;2022-11-20T06:07:08;8.47;;;1.70;;
11964;SDS011;6042;41.326;19.826;2022-11-20T06:09:38;6.77;;;1.80;;
11964;SDS011;6042;41.326;19.826;2022-11-20T06:12:06;7.43;;;1.60;;
11964;SDS011;6042;41.326;19.826;2022-11-20T06:14:35;4.70;;;1.73;;
11964;SDS011;6042;41.326;19.826;2022-11-20T06:17:03;7.80;;;1.80;;
11964;SDS011;6042;41.326;19.826;2022-11-20T06:19:32;6.97;;;2.10;;
11964;SDS011;6042;41.326;19.826;2022-11-20T06:22:00;8.23;;;1.80;;
11964;SDS011;6042;41.326;19.826;2022-11-20T06:24:29;9.37;;;2.43;;
11964;SDS011;6042;41.326;19.826;2022-11-20T06:26:58;4.47;;;1.47;;
11964;SDS011;6042;41.326;19.826;2022-11-20T06:29:27;6.57;;;2.20;;
11964;SDS011;6042;41.326;19.826;2022-11-20T06:32:00;6.23;;;2.03;;
11964;SDS011;6042;41.326;19.826;2022-11-20T06:34:29;6.73;;;2.00;;
11964;SDS011;6042;41.326;19.826;2022-11-20T06:36:57;15.93;;;2.27;;
11964;SDS011;6042;41.326;19.826;2022-11-20T06:39:25;3.20;;;0.97;;
11964;SDS011;6042;41.326;19.826;2022-11-20T06:41:54;3.80;;;1.17;;
11964;SDS011;6042;41.326;19.826;2022-11-20T06:44:26;4.63;;;1.50;;
11964;SDS011;6042;41.326;19.826;2022-11-20T06:46:54;3.87;;;0.90;;
11964;SDS011;6042;41.326;19.826;2022-11-20T06:49:23;2.23;;;0.93;;
11964;SDS011;6042;41.326;19.826;2022-11-20T06:51:51;1.43;;;1.30;;
11964;SDS011;6042;41.326;19.826;2022-11-20T06:54:20;2.50;;;0.90;;
11964;SDS011;6042;41.326;19.826;2022-11-20T06:56:49;2.87;;;1.20;;
11964;SDS011;6042;41.326;19.826;2022-11-20T06:59:18;5.33;;;1.20;;
11964;SDS011;6042;41.326;19.826;2022-11-20T07:01:48;4.23;;;1.20;;
11964;SDS011;6042;41.326;19.826;2022-11-20T07:04:16;4.90;;;1.20;;
11964;SDS011;6042;41.326;19.826;2022-11-20T07:06:45;3.43;;;0.90;;
11964;SDS011;6042;41.326;19.826;2022-11-20T07:09:13;2.73;;;0.90;;
11964;SDS011;6042;41.326;19.826;2022-11-20T07:11:42;3.93;;;1.33;;
11964;SDS011;6042;41.326;19.826;2022-11-20T07:14:11;4.17;;;1.50;;
11964;SDS011;6042;41.326;19.826;2022-11-20T07:16:39;2.00;;;1.07;;
11964;SDS011;6042;41.326;19.826;2022-11-20T07:19:09;3.90;;;1.30;;
11964;SDS011;6042;41.326;19.826;2022-11-20T07:21:38;7.23;;;1.40;;
11964;SDS011;6042;41.326;19.826;2022-11-20T07:24:07;3.70;;;1.40;;
11964;SDS011;6042;41.326;19.826;2022-11-20T07:26:35;4.07;;;1.43;;
11964;SDS011;6042;41.326;19.826;2022-11-20T07:29:04;3.40;;;1.20;;
11964;SDS011;6042;41.326;19.826;2022-11-20T07:31:32;3.10;;;1.33;;
11964;SDS011;6042;41.326;19.826;2022-11-20T07:34:01;4.50;;;1.13;;
11964;SDS011;6042;41.326;19.826;2022-11-20T07:36:31;3.53;;;1.20;;
11964;SDS011;6042;41.326;19.826;2022-11-20T07:38:59;4.20;;;1.37;;
11964;SDS011;6042;41.326;19.826;2022-11-20T07:41:28;5.73;;;1.40;;
11964;SDS011;6042;41.326;19.826;2022-11-20T07:43:56;4.40;;;1.00;;
11964;SDS011;6042;41.326;19.826;2022-11-20T07:46:24;5.77;;;1.43;;
11964;SDS011;6042;41.326;19.826;2022-11-20T07:48:53;4.63;;;1.27;;
11964;SDS011;6042;41.326;19.826;2022-11-20T07:51:21;5.10;;;1.40;;
11964;SDS011;6042;41.326;19.826;2022-11-20T07:53:51;5.67;;;2.00;;
11964;SDS011;6042;41.326;19.826;2022-11-20T07:56:20;4.77;;;1.70;;
11964;SDS011;6042;41.326;19.826;2022-11-20T07:58:49;4.83;;;1.60;;
11964;SDS011;6042;41.326;19.826;2022-11-20T08:01:18;5.17;;;1.50;;
11964;SDS011;6042;41.326;19.826;2022-11-20T08:03:46;4.13;;;1.60;;
11964;SDS011;6042;41.326;19.826;2022-11-20T08:06:15;3.30;;;1.43;;
11964;SDS011;6042;41.326;19.826;2022-11-20T08:08:44;4.90;;;1.87;;
11964;SDS011;6042;41.326;19.826;2022-11-20T08:11:16;9.83;;;2.30;;
11964;SDS011;6042;41.326;19.826;2022-11-20T08:14:02;7.17;;;1.80;;
11964;SDS011;6042;41.326;19.826;2022-11-20T08:16:40;5.67;;;1.90;;
11964;SDS011;6042;41.326;19.826;2022-11-20T08:19:09;6.77;;;2.10;;
11964;SDS011;6042;41.326;19.826;2022-11-20T08:21:38;5.87;;;2.30;;
11964;SDS011;6042;41.326;19.826;2022-11-20T08:24:07;8.90;;;2.47;;
11964;SDS011;6042;41.326;19.826;2022-11-20T08:26:38;6.00;;;2.87;;
11964;SDS011;6042;41.326;19.826;2022-11-20T08:29:07;7.77;;;2.57;;
11964;SDS011;6042;41.326;19.826;2022-11-20T08:31:36;5.77;;;2.40;;
11964;SDS011;6042;41.326;19.826;2022-11-20T08:34:04;7.73;;;3.47;;
11964;SDS011;6042;41.326;19.826;2022-11-20T08:36:35;10.87;;;2.50;;
11964;SDS011;6042;41.326;19.826;2022-11-20T08:39:04;13.47;;;2.60;;
11964;SDS011;6042;41.326;19.826;2022-11-20T08:41:33;12.37;;;3.23;;
11964;SDS011;6042;41.326;19.826;2022-11-20T08:44:05;8.80;;;3.03;;
11964;SDS011;6042;41.326;19.826;2022-11-20T08:46:35;8.50;;;2.67;;
11964;SDS011;6042;41.326;19.826;2022-11-20T08:49:08;9.53;;;3.23;;
11964;SDS011;6042;41.326;19.826;2022-11-20T08:51:37;9.77;;;2.97;;
11964;SDS011;6042;41.326;19.826;2022-11-20T08:54:07;10.27;;;3.23;;
11964;SDS011;6042;41.326;19.826;2022-11-20T08:56:35;11.00;;;3.37;;
11964;SDS011;6042;41.326;19.826;2022-11-20T08:59:05;7.27;;;3.00;;
11964;SDS011;6042;41.326;19.826;2022-11-20T09:01:54;7.57;;;2.93;;
11964;SDS011;6042;41.326;19.826;2022-11-20T09:04:22;6.43;;;2.73;;
11964;SDS011;6042;41.326;19.826;2022-11-20T09:06:51;10.80;;;2.43;;
11964;SDS011;6042;41.326;19.826;2022-11-20T09:09:19;6.30;;;2.63;;
11964;SDS011;6042;41.326;19.826;2022-11-20T09:11:49;8.07;;;3.10;;
11964;SDS011;6042;41.326;19.826;2022-11-20T09:14:19;10.40;;;3.27;;
11964;SDS011;6042;41.326;19.826;2022-11-20T09:16:47;8.87;;;2.97;;
11964;SDS011;6042;41.326;19.826;2022-11-20T09:19:16;9.03;;;2.77;;
11964;SDS011;6042;41.326;19.826;2022-11-20T09:22:02;10.13;;;2.70;;
11964;SDS011;6042;41.326;19.826;2022-11-20T09:24:30;9.03;;;2.97;;
11964;SDS011;6042;41.326;19.826;2022-11-20T09:27:01;6.50;;;2.90;;
11964;SDS011;6042;41.326;19.826;2022-11-20T09:29:32;12.40;;;3.07;;
11964;SDS011;6042;41.326;19.826;2022-11-20T09:32:01;9.70;;;3.13;;
11964;SDS011;6042;41.326;19.826;2022-11-20T09:34:29;7.33;;;3.90;;
11964;SDS011;6042;41.326;19.826;2022-11-20T09:36:58;7.57;;;3.40;;
11964;SDS011;6042;41.326;19.826;2022-11-20T09:39:33;9.53;;;4.30;;
11964;SDS011;6042;41.326;19.826;2022-11-20T09:45:18;9.40;;;3.53;;
11964;SDS011;6042;41.326;19.826;2022-11-20T09:47:53;6.60;;;3.00;;
11964;SDS011;6042;41.326;19.826;2022-11-20T09:50:32;10.60;;;3.37;;
11964;SDS011;6042;41.326;19.826;2022-11-20T09:53:12;13.33;;;4.00;;
11964;SDS011;6042;41.326;19.826;2022-11-20T09:55:48;14.20;;;6.07;;
11964;SDS011;6042;41.326;19.826;2022-11-20T09:58:20;10.00;;;4.13;;
11964;SDS011;6042;41.326;19.826;2022-11-20T10:01:03;9.77;;;3.87;;
11964;SDS011;6042;41.326;19.826;2022-11-20T10:03:39;12.67;;;4.43;;
11964;SDS011;6042;41.326;19.826;2022-11-20T10:06:15;12.57;;;4.10;;
11964;SDS011;6042;41.326;19.826;2022-11-20T10:08:45;6.87;;;3.60;;
11964;SDS011;6042;41.326;19.826;2022-11-20T10:11:26;12.63;;;4.43;;
11964;SDS011;6042;41.326;19.826;2022-11-20T10:14:06;6.43;;;3.53;;
11964;SDS011;6042;41.326;19.826;2022-11-20T10:16:50;9.30;;;3.53;;
11964;SDS011;6042;41.326;19.826;2022-11-20T10:19:30;13.67;;;4.57;;
11964;SDS011;6042;41.326;19.826;2022-11-20T10:22:10;9.50;;;3.93;;
11964;SDS011;6042;41.326;19.826;2022-11-20T10:24:53;10.13;;;3.37;;
11964;SDS011;6042;41.326;19.826;2022-11-20T10:27:35;9.10;;;3.30;;
11964;SDS011;6042;41.326;19.826;2022-11-20T10:30:31;11.73;;;4.43;;
11964;SDS011;6042;41.326;19.826;2022-11-20T10:33:10;10.93;;;4.23;;
11964;SDS011;6042;41.326;19.826;2022-11-20T10:35:44;7.80;;;2.87;;
11964;SDS011;6042;41.326;19.826;2022-11-20T10:38:20;10.53;;;3.73;;
11964;SDS011;6042;41.326;19.826;2022-11-20T10:40:53;12.30;;;3.00;;
11964;SDS011;6042;41.326;19.826;2022-11-20T10:43:46;9.77;;;3.00;;
11964;SDS011;6042;41.326;19.826;2022-11-20T10:46:18;10.37;;;3.70;;
11964;SDS011;6042;41.326;19.826;2022-11-20T10:48:51;11.33;;;4.20;;
11964;SDS011;6042;41.326;19.826;2022-11-20T10:51:33;7.53;;;3.43;;
11964;SDS011;6042;41.326;19.826;2022-11-20T10:54:10;13.43;;;2.63;;
11964;SDS011;6042;41.326;19.826;2022-11-20T10:56:47;6.10;;;2.50;;
11964;SDS011;6042;41.326;19.826;2022-11-20T10:59:26;10.33;;;3.07;;
11964;SDS011;6042;41.326;19.826;2022-11-20T11:02:15;9.23;;;3.50;;
11964;SDS011;6042;41.326;19.826;2022-11-20T11:04:49;11.47;;;2.87;;
11964;SDS011;6042;41.326;19.826;2022-11-20T11:07:20;8.07;;;2.63;;
11964;SDS011;6042;41.326;19.826;2022-11-20T11:09:52;5.97;;;2.60;;
11964;SDS011;6042;41.326;19.826;2022-11-20T11:12:22;7.87;;;2.53;;
11964;SDS011;6042;41.326;19.826;2022-11-20T11:14:54;9.27;;;2.90;;
11964;SDS011;6042;41.326;19.826;2022-11-20T11:17:28;6.07;;;2.80;;
11964;SDS011;6042;41.326;19.826;2022-11-20T11:20:04;7.20;;;2.63;;
11964;SDS011;6042;41.326;19.826;2022-11-20T11:22:43;8.27;;;3.47;;
11964;SDS011;6042;41.326;19.826;2022-11-20T11:25:24;17.90;;;5.60;;
11964;SDS011;6042;41.326;19.826;2022-11-20T11:27:56;9.03;;;4.07;;
11964;SDS011;6042;41.326;19.826;2022-11-20T11:30:28;6.80;;;3.43;;
11964;SDS011;6042;41.326;19.826;2022-11-20T11:33:09;10.90;;;4.07;;
11964;SDS011;6042;41.326;19.826;2022-11-20T11:35:45;7.00;;;2.90;;
11964;SDS011;6042;41.326;19.826;2022-11-20T11:38:19;6.53;;;3.00;;
11964;SDS011;6042;41.326;19.826;2022-11-20T11:40:52;6.33;;;2.80;;
11964;SDS011;6042;41.326;19.826;2022-11-20T11:43:24;9.40;;;4.37;;
11964;SDS011;6042;41.326;19.826;2022-11-20T11:46:20;6.43;;;3.17;;
11964;SDS011;6042;41.326;19.826;2022-11-20T11:48:55;8.47;;;3.90;;
11964;SDS011;6042;41.326;19.826;2022-11-20T11:51:34;6.43;;;3.60;;
11964;SDS011;6042;41.326;19.826;2022-11-20T11:54:16;8.50;;;3.60;;
11964;SDS011;6042;41.326;19.826;2022-11-20T11:56:51;9.43;;;3.57;;
11964;SDS011;6042;41.326;19.826;2022-11-20T11:59:22;11.10;;;6.00;;
11964;SDS011;6042;41.326;19.826;2022-11-20T12:01:57;12.60;;;4.27;;
11964;SDS011;6042;41.326;19.826;2022-11-20T12:04:37;10.27;;;3.53;;
11964;SDS011;6042;41.326;19.826;2022-11-20T12:07:15;11.27;;;4.67;;
11964;SDS011;6042;41.326;19.826;2022-11-20T12:10:12;9.23;;;4.70;;
11964;SDS011;6042;41.326;19.826;2022-11-20T12:12:54;6.03;;;3.83;;
11964;SDS011;6042;41.326;19.826;2022-11-20T12:15:33;8.17;;;3.70;;
11964;SDS011;6042;41.326;19.826;2022-11-20T12:18:04;6.73;;;3.37;;
11964;SDS011;6042;41.326;19.826;2022-11-20T12:20:40;9.13;;;3.70;;
11964;SDS011;6042;41.326;19.826;2022-11-20T12:23:16;10.40;;;3.53;;
11964;SDS011;6042;41.326;19.826;2022-11-20T12:25:54;5.43;;;3.00;;
11964;SDS011;6042;41.326;19.826;2022-11-20T12:31:27;5.50;;;2.90;;
11964;SDS011;6042;41.326;19.826;2022-11-20T12:34:19;5.73;;;2.33;;
11964;SDS011;6042;41.326;19.826;2022-11-20T12:37:00;7.53;;;3.97;;
11964;SDS011;6042;41.326;19.826;2022-11-20T12:39:42;6.70;;;3.10;;
11964;SDS011;6042;41.326;19.826;2022-11-20T12:42:34;4.73;;;2.43;;
11964;SDS011;6042;41.326;19.826;2022-11-20T12:45:45;3.73;;;2.00;;
11964;SDS011;6042;41.326;19.826;2022-11-20T12:48:41;4.97;;;2.40;;
11964;SDS011;6042;41.326;19.826;2022-11-20T12:51:34;4.77;;;2.67;;
11964;SDS011;6042;41.326;19.826;2022-11-20T12:57:36;6.33;;;3.60;;
11964;SDS011;6042;41.326;19.826;2022-11-20T13:00:15;8.67;;;3.10;;
11964;SDS011;6042;41.326;19.826;2022-11-20T13:05:51;8.67;;;2.63;;
11964;SDS011;6042;41.326;19.826;2022-11-20T13:08:28;6.23;;;2.53;;
11964;SDS011;6042;41.326;19.826;2022-11-20T13:11:02;7.23;;;3.00;;
11964;SDS011;6042;41.326;19.826;2022-11-20T13:13:42;6.17;;;3.53;;
11964;SDS011;6042;41.326;19.826;2022-11-20T13:16:30;7.57;;;3.40;;
11964;SDS011;6042;41.326;19.826;2022-11-20T13:19:09;6.87;;;2.80;;
11964;SDS011;6042;41.326;19.826;2022-11-20T13:21:41;9.07;;;3.13;;
11964;SDS011;6042;41.326;19.826;2022-11-20T13:24:21;9.07;;;4.33;;
11964;SDS011;6042;41.326;19.826;2022-11-20T13:26:59;7.47;;;3.03;;
11964;SDS011;6042;41.326;19.826;2022-11-20T13:29:34;11.80;;;3.23;;
11964;SDS011;6042;41.326;19.826;2022-11-20T13:32:06;11.53;;;2.77;;
11964;SDS011;6042;41.326;19.826;2022-11-20T13:34:50;13.87;;;3.43;;
11964;SDS011;6042;41.326;19.826;2022-11-20T13:37:24;11.37;;;4.40;;
11964;SDS011;6042;41.326;19.826;2022-11-20T13:40:04;5.47;;;2.60;;
11964;SDS011;6042;41.326;19.826;2022-11-20T13:42:40;8.67;;;2.67;;
11964;SDS011;6042;41.326;19.826;2022-11-20T13:45:23;9.17;;;3.17;;
11964;SDS011;6042;41.326;19.826;2022-11-20T13:47:53;8.83;;;3.53;;
11964;SDS011;6042;41.326;19.826;2022-11-20T13:50:30;10.03;;;3.67;;
11964;SDS011;6042;41.326;19.826;2022-11-20T13:53:12;6.33;;;2.87;;
11964;SDS011;6042;41.326;19.826;2022-11-20T13:55:54;8.37;;;3.73;;
11964;SDS011;6042;41.326;19.826;2022-11-20T13:58:31;10.17;;;3.40;;
11964;SDS011;6042;41.326;19.826;2022-11-20T14:01:16;11.30;;;4.57;;
11964;SDS011;6042;41.326;19.826;2022-11-20T14:03:47;13.37;;;4.23;;
11964;SDS011;6042;41.326;19.826;2022-11-20T14:06:33;8.70;;;4.00;;
11964;SDS011;6042;41.326;19.826;2022-11-20T14:09:10;11.10;;;3.97;;
11964;SDS011;6042;41.326;19.826;2022-11-20T14:11:45;12.03;;;4.00;;
11964;SDS011;6042;41.326;19.826;2022-11-20T14:14:15;8.87;;;3.57;;
11964;SDS011;6042;41.326;19.826;2022-11-20T14:16:49;9.70;;;4.70;;
11964;SDS011;6042;41.326;19.826;2022-11-20T14:19:28;12.37;;;4.77;;
11964;SDS011;6042;41.326;19.826;2022-11-20T14:22:08;18.67;;;11.17;;
11964;SDS011;6042;41.326;19.826;2022-11-20T14:24:44;14.53;;;5.77;;
11964;SDS011;6042;41.326;19.826;2022-11-20T14:27:13;11.93;;;5.83;;
11964;SDS011;6042;41.326;19.826;2022-11-20T14:29:44;10.23;;;3.63;;
11964;SDS011;6042;41.326;19.826;2022-11-20T14:32:17;10.47;;;4.53;;
11964;SDS011;6042;41.326;19.826;2022-11-20T14:34:48;9.80;;;4.63;;
11964;SDS011;6042;41.326;19.826;2022-11-20T14:37:19;9.43;;;3.87;;
11964;SDS011;6042;41.326;19.826;2022-11-20T14:39:51;13.10;;;2.40;;
11964;SDS011;6042;41.326;19.826;2022-11-20T14:42:21;7.53;;;2.90;;
11964;SDS011;6042;41.326;19.826;2022-11-20T14:44:52;6.83;;;2.53;;
11964;SDS011;6042;41.326;19.826;2022-11-20T14:47:25;6.93;;;2.80;;
11964;SDS011;6042;41.326;19.826;2022-11-20T14:49:57;10.00;;;4.10;;
11964;SDS011;6042;41.326;19.826;2022-11-20T14:52:35;6.87;;;3.80;;
11964;SDS011;6042;41.326;19.826;2022-11-20T14:55:03;13.90;;;5.17;;
11964;SDS011;6042;41.326;19.826;2022-11-20T14:57:33;9.43;;;4.70;;
11964;SDS011;6042;41.326;19.826;2022-11-20T15:00:04;10.20;;;4.63;;
11964;SDS011;6042;41.326;19.826;2022-11-20T15:02:40;8.90;;;4.23;;
11964;SDS011;6042;41.326;19.826;2022-11-20T15:05:10;12.93;;;6.10;;
11964;SDS011;6042;41.326;19.826;2022-11-20T15:07:40;9.70;;;5.77;;
11964;SDS011;6042;41.326;19.826;2022-11-20T15:10:13;10.30;;;5.40;;
11964;SDS011;6042;41.326;19.826;2022-11-20T15:12:48;10.43;;;5.03;;
11964;SDS011;6042;41.326;19.826;2022-11-20T15:15:21;10.13;;;5.77;;
11964;SDS011;6042;41.326;19.826;2022-11-20T15:17:55;13.40;;;6.57;;
11964;SDS011;6042;41.326;19.826;2022-11-20T15:20:24;12.63;;;6.03;;
11964;SDS011;6042;41.326;19.826;2022-11-20T15:22:55;15.63;;;6.70;;
11964;SDS011;6042;41.326;19.826;2022-11-20T15:25:23;21.13;;;10.20;;
11964;SDS011;6042;41.326;19.826;2022-11-20T15:27:54;11.43;;;6.63;;
11964;SDS011;6042;41.326;19.826;2022-11-20T15:30:24;13.10;;;5.63;;